METAR AND TAF INFORMATION
METAR FOR KSBA
KSBA 130753Z AUTO 11011KT 10SM OVC050 14/12 A2998 RMK AO2 SLP151 T01440122 401560111
KSBA 130653Z AUTO 12011G18KT 10SM OVC050 14/12 A2998 RMK AO2 SLP151 T01440117
KSBA 130553Z 13010G21KT 10SM FEW035 OVC044 14/12 A2997 RMK AO2 SLP148 T01440122 10150 20139 50014
KSBA 130801Z 1308/1406 10015G22KT 6SM BR OVC035
FM131100 10020G30KT 5SM -SHRA BR OVC015
FM131700 11015G25KT 2SM -RA BR BKN015
FM132000 12008KT 4SM -RA BR OVC025
FM140200 VRB03KT P6SM -RA OVC250

 AIRPORT MAP

 RUNWAY INFORMATION
Runway 07 Runway length 6052 ft Runway width 150 ft
Runway elevation 9 ft Runway displaced threshold 0 ft Runway heading 89
Runway 25 Runway length 6052 ft Runway width 150 ft
Runway elevation 9 ft Runway displaced threshold 314 ft Runway heading 269
Runway 15L Runway length 4179 ft Runway width 75 ft
Runway elevation 9 ft Runway displaced threshold 217 ft Runway heading 166
Runway 33R Runway length 4179 ft Runway width 75 ft
Runway elevation 8 ft Runway displaced threshold 0 ft Runway heading 346
Runway 15R Runway length 4183 ft Runway width 100 ft
Runway elevation 8 ft Runway displaced threshold 0 ft Runway heading 166
Runway 33L Runway length 4183 ft Runway width 100 ft
Runway elevation 8 ft Runway displaced threshold 0 ft Runway heading 346

 AIRPORT FREQUENCIES
Type A/D Name APP/DEP Frequency 120.55 MHZ
Type A/D Name APP/DEP Frequency 127.725 MHZ
Type ATIS Name ATIS Frequency 132.65 MHZ
Type CLD Name CLNC DEL Frequency 132.9 MHZ
Type CTAF Name CTAF Frequency 119.7 MHZ
Type GND Name GND Frequency 121.7 MHZ
Type TWR Name TWR Frequency 119.7 MHZ
Type UNIC Name UNICOM Frequency 122.95 MHZ

 AIRPORT NEAR NAVIGATION AIDS
Type VORTAC Name Gaviota Frequency 113800 KHZ
Type VORTAC Name San Marcus Frequency 114900 KHZ

-